createdAt,value
2023-03-02T00:01:00.654Z,94.83
2023-03-02T00:03:28.472Z,96.77
2023-03-02T00:05:56.150Z,59.07
2023-03-02T00:08:22.822Z,78.67
2023-03-02T00:10:49.240Z,93.43
2023-03-02T00:13:15.699Z,96.77
2023-03-02T00:15:42.146Z,75.37
2023-03-02T00:18:08.539Z,126.60
2023-03-02T00:20:35.873Z,101.33
2023-03-02T00:23:02.361Z,85.23
2023-03-02T00:25:28.762Z,110.27
2023-03-02T00:27:55.164Z,97.87
2023-03-02T00:30:21.736Z,90.70
2023-03-02T00:32:48.415Z,74.43
2023-03-02T00:35:14.866Z,85.20
2023-03-02T00:37:41.429Z,107.10
2023-03-02T00:40:11.824Z,98.93
2023-03-02T00:42:38.408Z,91.13
2023-03-02T00:45:06.081Z,115.07
2023-03-02T00:47:36.345Z,134.10
2023-03-02T00:50:04.486Z,194.73
2023-03-02T00:52:31.683Z,155.87
2023-03-02T00:54:58.166Z,136.37
2023-03-02T00:57:24.867Z,155.20
2023-03-02T00:59:51.273Z,188.67
2023-03-02T01:02:17.713Z,322.37
2023-03-02T01:04:44.445Z,367.53
2023-03-02T01:07:13.172Z,157.73
2023-03-02T01:09:40.996Z,116.87
2023-03-02T01:12:10.337Z,178.87
2023-03-02T01:14:41.857Z,354.07
2023-03-02T01:17:09.146Z,158.73
2023-03-02T01:19:36.110Z,148.47
2023-03-02T01:22:03.153Z,229.83
2023-03-02T01:24:29.704Z,147.53
2023-03-02T01:26:56.096Z,170.57
2023-03-02T01:29:22.471Z,173.13
2023-03-02T01:31:48.927Z,163.13
2023-03-02T01:34:15.488Z,126.93
2023-03-02T01:36:45.491Z,113.50
2023-03-02T01:39:15.804Z,88.63
2023-03-02T01:41:43.640Z,87.13
2023-03-02T01:44:37.309Z,90.50
2023-03-02T01:47:13.873Z,223.53
2023-03-02T01:49:44.872Z,212.80
2023-03-02T01:52:12.310Z,65.60
2023-03-02T01:54:40.670Z,89.77
2023-03-02T01:57:07.730Z,94.00
2023-03-02T01:59:35.796Z,148.93
2023-03-02T02:02:04.642Z,120.37
2023-03-02T02:04:32.331Z,138.47
2023-03-02T02:07:02.681Z,153.77
2023-03-02T02:09:32.384Z,317.07
2023-03-02T02:11:58.894Z,254.20
2023-03-02T02:14:25.462Z,88.70
2023-03-02T02:16:52.084Z,120.63
2023-03-02T02:19:31.918Z,133.03
2023-03-02T02:21:58.354Z,180.80
2023-03-02T02:24:40.032Z,320.30
2023-03-02T02:27:06.554Z,244.97
2023-03-02T02:29:36.026Z,256.03
2023-03-02T02:32:07.171Z,282.37
2023-03-02T02:34:39.420Z,159.87
2023-03-02T02:37:09.589Z,109.77
2023-03-02T02:39:39.710Z,150.03
2023-03-02T02:42:12.478Z,165.87
2023-03-02T02:44:38.943Z,204.47
2023-03-02T02:47:15.317Z,386.60
2023-03-02T02:49:41.836Z,233.90
2023-03-02T02:52:14.038Z,164.63
2023-03-02T02:54:40.913Z,147.47
2023-03-02T02:57:07.437Z,271.23
2023-03-02T02:59:37.239Z,71.13
2023-03-02T03:02:03.687Z,80.07
2023-03-02T03:04:32.203Z,595.93
2023-03-02T03:06:59.654Z,166.00
2023-03-02T03:09:27.614Z,90.77
2023-03-02T03:11:57.445Z,527.67
2023-03-02T03:14:39.304Z,122.67
2023-03-02T03:17:12.792Z,127.80
2023-03-02T03:19:42.181Z,114.00
2023-03-02T03:22:11.810Z,145.07
2023-03-02T03:24:39.140Z,177.80
2023-03-02T03:27:07.318Z,296.23
2023-03-02T03:29:35.184Z,258.00
2023-03-02T03:32:02.858Z,167.60
2023-03-02T03:34:30.312Z,141.10
2023-03-02T03:37:02.389Z,49.30
2023-03-02T03:39:30.274Z,130.87
2023-03-02T03:41:56.757Z,81.97
2023-03-02T03:44:23.141Z,113.70
2023-03-02T03:46:50.223Z,67.93
2023-03-02T03:49:17.031Z,82.67
2023-03-02T03:51:43.462Z,160.27
2023-03-02T03:54:10.231Z,280.30
2023-03-02T03:56:39.960Z,169.17
2023-03-02T03:59:08.810Z,80.73
2023-03-02T04:01:48.580Z,138.17
2023-03-02T04:04:21.814Z,112.00
2023-03-02T04:06:48.243Z,165.53
2023-03-02T04:09:15.439Z,83.13
2023-03-02T04:11:43.379Z,82.83
2023-03-02T04:14:10.082Z,66.40
2023-03-02T04:16:37.466Z,171.17
2023-03-02T04:19:09.420Z,142.63
2023-03-02T04:21:40.987Z,222.43
2023-03-02T04:24:08.116Z,104.03
2023-03-02T04:26:36.351Z,279.67
2023-03-02T04:29:03.042Z,89.70
2023-03-02T04:31:31.233Z,135.53
2023-03-02T04:33:58.615Z,111.07
2023-03-02T04:36:25.746Z,227.30
2023-03-02T04:38:53.016Z,260.43
2023-03-02T04:41:19.510Z,250.23
2023-03-02T04:43:45.917Z,183.43
2023-03-02T04:46:22.611Z,178.63
2023-03-02T04:48:49.357Z,200.27
2023-03-02T04:51:24.137Z,129.43
2023-03-02T04:53:59.958Z,221.17
2023-03-02T04:56:26.542Z,105.03
2023-03-02T04:58:52.962Z,181.87
2023-03-02T05:01:20.474Z,100.20
2023-03-02T05:03:47.146Z,141.03
2023-03-02T05:06:13.982Z,140.27
2023-03-02T05:08:40.417Z,250.57
2023-03-02T05:11:07.830Z,102.27
2023-03-02T05:13:35.123Z,67.57
2023-03-02T05:16:02.754Z,114.03
2023-03-02T05:18:29.391Z,86.40
2023-03-02T05:20:55.867Z,194.67
2023-03-02T05:23:26.718Z,56.77
2023-03-02T05:25:55.259Z,82.17
2023-03-02T05:28:23.831Z,86.17
2023-03-02T05:30:50.537Z,99.70
2023-03-02T05:33:17.254Z,108.90
2023-03-02T05:35:45.327Z,66.40
2023-03-02T05:38:11.813Z,50.87
2023-03-02T05:40:39.601Z,82.23
2023-03-02T05:43:07.068Z,61.60
2023-03-02T05:45:38.379Z,68.27
2023-03-02T05:48:05.165Z,91.00
2023-03-02T05:50:31.677Z,94.73
2023-03-02T05:53:00.053Z,156.17
2023-03-02T05:55:26.628Z,108.10
2023-03-02T05:57:53.149Z,213.53
2023-03-02T06:00:20.406Z,114.47
2023-03-02T06:02:46.926Z,116.77
2023-03-02T06:05:16.390Z,151.87
2023-03-02T06:07:42.966Z,96.30
2023-03-02T06:10:10.765Z,142.50
2023-03-02T06:12:37.374Z,169.80
2023-03-02T06:15:05.523Z,309.00
2023-03-02T06:17:32.415Z,71.30
2023-03-02T06:19:58.969Z,99.90
2023-03-02T06:22:25.395Z,51.67
2023-03-02T06:24:51.800Z,70.57
2023-03-02T06:27:18.222Z,109.23
2023-03-02T06:29:44.595Z,100.93
2023-03-02T06:32:11.051Z,86.27
2023-03-02T06:34:37.544Z,56.57
2023-03-02T06:37:03.969Z,164.77
2023-03-02T06:39:30.405Z,210.40
2023-03-02T06:41:56.882Z,123.47
2023-03-02T06:44:23.313Z,100.50
2023-03-02T06:46:49.690Z,73.93
2023-03-02T06:49:16.111Z,56.97
2023-03-02T06:51:42.495Z,53.93
2023-03-02T06:54:08.923Z,67.27
2023-03-02T06:56:35.511Z,96.00
2023-03-02T06:59:02.078Z,116.63
2023-03-02T07:01:33.132Z,104.10
2023-03-02T07:03:59.766Z,67.20
2023-03-02T07:06:26.156Z,69.07
2023-03-02T07:08:52.792Z,119.97
2023-03-02T07:11:19.209Z,191.17
2023-03-02T07:13:45.602Z,149.87
2023-03-02T07:16:13.682Z,123.03
2023-03-02T07:18:40.305Z,139.73
2023-03-02T07:21:07.215Z,249.27
2023-03-02T07:23:33.974Z,143.50
2023-03-02T07:26:00.352Z,167.30
2023-03-02T07:28:27.617Z,133.37
2023-03-02T07:30:54.373Z,239.23
2023-03-02T07:33:21.337Z,264.40
2023-03-02T07:35:47.789Z,163.90
2023-03-02T07:38:14.456Z,248.93
2023-03-02T07:40:44.095Z,87.47
2023-03-02T07:43:10.739Z,72.90
2023-03-02T07:45:38.244Z,355.40
2023-03-02T07:48:05.393Z,63.80
2023-03-02T07:50:32.180Z,101.87
2023-03-02T07:52:59.945Z,137.80
2023-03-02T07:55:26.648Z,77.13
2023-03-02T07:57:53.256Z,198.83
2023-03-02T08:00:20.561Z,139.30
2023-03-02T08:02:47.128Z,177.90
2023-03-02T08:05:13.967Z,161.50
2023-03-02T08:07:40.940Z,168.17
2023-03-02T08:10:07.818Z,220.53
2023-03-02T08:12:34.362Z,274.00
2023-03-02T08:15:02.556Z,185.57
2023-03-02T08:17:30.194Z,211.40
2023-03-02T08:19:56.586Z,126.40
2023-03-02T08:22:22.980Z,87.30
2023-03-02T08:24:49.354Z,73.50
2023-03-02T08:27:16.154Z,88.20
2023-03-02T08:29:42.593Z,134.70
2023-03-02T08:32:09.088Z,118.80
2023-03-02T08:34:36.185Z,73.47
2023-03-02T08:37:02.707Z,67.33
2023-03-02T08:39:31.238Z,135.27
2023-03-02T08:41:57.772Z,97.67
2023-03-02T08:44:24.214Z,48.10
2023-03-02T08:46:51.314Z,59.10
2023-03-02T08:49:19.142Z,64.30
2023-03-02T08:51:46.027Z,141.10
2023-03-02T08:54:12.620Z,117.13
2023-03-02T08:56:39.909Z,99.83
2023-03-02T08:59:09.543Z,53.87
2023-03-02T09:01:37.322Z,35.10
2023-03-02T09:04:05.943Z,121.73
2023-03-02T09:06:34.581Z,129.03
2023-03-02T09:09:01.087Z,70.23
2023-03-02T09:11:27.837Z,83.87
2023-03-02T09:13:54.935Z,170.67
2023-03-02T09:16:22.077Z,42.70
2023-03-02T09:18:48.762Z,93.83
2023-03-02T09:21:15.431Z,83.87
2023-03-02T09:23:41.847Z,81.83
2023-03-02T09:26:08.439Z,71.83
2023-03-02T09:28:36.002Z,33.20
2023-03-02T09:31:04.288Z,36.27
2023-03-02T09:33:31.777Z,64.30
2023-03-02T09:35:58.351Z,74.53
2023-03-02T09:38:24.723Z,198.97
2023-03-02T09:40:54.101Z,117.03
2023-03-02T09:43:50.107Z,109.13
2023-03-02T09:46:26.864Z,86.23
2023-03-02T09:49:15.762Z,192.57
2023-03-02T09:51:42.062Z,73.57
2023-03-02T09:54:14.543Z,124.07
2023-03-02T09:56:50.685Z,90.60
2023-03-02T09:59:29.722Z,54.73
2023-03-02T10:02:21.003Z,48.80
2023-03-02T10:04:50.368Z,85.33
2023-03-02T10:07:20.146Z,46.13
2023-03-02T10:09:46.662Z,34.47
2023-03-02T10:12:43.614Z,32.23
2023-03-02T10:15:24.675Z,35.33
2023-03-02T10:18:15.830Z,50.07
2023-03-02T10:21:01.918Z,41.40
2023-03-02T10:24:10.002Z,38.50
2023-03-02T10:26:44.817Z,30.83
2023-03-02T10:29:43.361Z,32.23
2023-03-02T10:32:09.669Z,27.83
2023-03-02T10:34:37.672Z,36.03
2023-03-02T10:37:13.794Z,24.73
2023-03-02T10:39:40.257Z,23.87
2023-03-02T10:42:09.249Z,28.57
2023-03-02T10:44:39.202Z,27.67
2023-03-02T10:47:07.433Z,25.67
2023-03-02T10:49:42.192Z,24.83
2023-03-02T10:52:20.322Z,23.60
2023-03-02T10:54:47.560Z,27.30
2023-03-02T10:57:37.081Z,24.80
2023-03-02T11:00:15.247Z,27.30
2023-03-02T11:02:49.451Z,26.30
2023-03-02T11:05:15.721Z,24.17
2023-03-02T11:07:52.222Z,26.30
2023-03-02T11:10:23.561Z,26.77
2023-03-02T11:12:51.462Z,25.07
2023-03-02T11:15:28.317Z,26.27
2023-03-02T11:18:05.347Z,31.33
2023-03-02T11:20:35.364Z,28.83
2023-03-02T11:23:20.724Z,28.57
2023-03-02T11:25:53.358Z,30.80
2023-03-02T11:28:34.094Z,32.40
2023-03-02T11:31:01.244Z,30.03
2023-03-02T11:33:35.593Z,31.13
2023-03-02T11:36:16.253Z,28.60
2023-03-02T11:38:48.981Z,28.50
2023-03-02T11:41:27.294Z,24.43
2023-03-02T11:43:54.848Z,28.13
2023-03-02T11:46:30.620Z,22.50
2023-03-02T11:49:00.261Z,24.77
2023-03-02T11:51:29.290Z,21.33
2023-03-02T11:54:04.092Z,24.67
2023-03-02T11:56:32.472Z,25.50
2023-03-02T11:59:04.894Z,22.40
2023-03-02T12:01:32.187Z,23.70
2023-03-02T12:04:32.160Z,23.47
2023-03-02T12:07:01.110Z,23.07
2023-03-02T12:09:39.382Z,20.90
2023-03-02T12:12:17.242Z,24.77
2023-03-02T12:14:44.716Z,22.00
2023-03-02T12:17:26.399Z,23.33
2023-03-02T12:20:07.957Z,25.30
2023-03-02T12:22:35.413Z,26.03
2023-03-02T12:25:05.727Z,26.07
2023-03-02T12:27:41.648Z,23.63
2023-03-02T12:30:32.508Z,23.83
2023-03-02T12:33:02.701Z,25.57
2023-03-02T12:35:31.875Z,29.13
2023-03-02T12:38:07.972Z,30.93
2023-03-02T12:40:52.823Z,30.13
2023-03-02T12:43:27.804Z,31.70
2023-03-02T12:46:18.760Z,22.63
2023-03-02T12:48:58.350Z,23.53
2023-03-02T12:51:30.432Z,21.60
2023-03-02T12:54:04.114Z,19.30
2023-03-02T12:56:30.554Z,21.73
2023-03-02T12:58:56.941Z,16.93
2023-03-02T13:01:25.998Z,19.00
2023-03-02T13:03:53.762Z,20.83
2023-03-02T13:06:23.079Z,18.97
2023-03-02T13:08:57.696Z,18.23
2023-03-02T13:11:31.134Z,20.23
2023-03-02T13:13:59.023Z,21.67
2023-03-02T13:16:26.483Z,27.13
2023-03-02T13:18:56.867Z,22.13
2023-03-02T13:21:37.809Z,21.07
2023-03-02T13:24:25.821Z,29.50
2023-03-02T13:27:05.609Z,24.27
2023-03-02T13:29:32.098Z,20.90
2023-03-02T13:32:17.797Z,24.33
2023-03-02T13:34:50.563Z,22.73
2023-03-02T13:37:23.670Z,20.90
2023-03-02T13:39:58.415Z,22.10
2023-03-02T13:42:39.522Z,20.03
2023-03-02T13:45:24.372Z,22.23
2023-03-02T13:47:51.346Z,21.87
2023-03-02T13:50:23.781Z,19.13
2023-03-02T13:52:50.546Z,19.57
2023-03-02T13:55:19.219Z,22.27
2023-03-02T13:57:46.272Z,18.70
2023-03-02T14:00:25.368Z,22.30
2023-03-02T14:02:51.844Z,20.87
2023-03-02T14:05:24.250Z,19.67
2023-03-02T14:07:50.878Z,21.87
2023-03-02T14:10:18.877Z,21.33
2023-03-02T14:13:05.348Z,16.27
2023-03-02T14:15:31.848Z,18.73
2023-03-02T14:17:58.315Z,19.73
2023-03-02T14:20:24.785Z,16.80
2023-03-02T14:22:51.493Z,19.13
2023-03-02T14:25:17.905Z,18.97
2023-03-02T14:27:44.394Z,19.37
2023-03-02T14:30:19.453Z,21.77
2023-03-02T14:32:46.300Z,19.30
2023-03-02T14:35:15.537Z,20.77
2023-03-02T14:37:45.105Z,19.43
2023-03-02T14:40:16.812Z,20.63
2023-03-02T14:42:43.209Z,19.27
2023-03-02T14:45:10.486Z,22.57
2023-03-02T14:47:36.890Z,19.70
2023-03-02T14:50:05.323Z,21.50
2023-03-02T14:52:44.397Z,19.63
2023-03-02T14:55:29.839Z,23.73
2023-03-02T14:58:00.870Z,22.50
2023-03-02T15:00:27.679Z,23.60
2023-03-02T15:02:54.294Z,23.53
2023-03-02T15:05:20.805Z,22.37
2023-03-02T15:07:48.213Z,21.70
2023-03-02T15:10:19.503Z,23.83
2023-03-02T15:12:46.147Z,20.67
2023-03-02T15:15:13.194Z,22.37
2023-03-02T15:17:40.116Z,20.70
2023-03-02T15:20:07.671Z,26.23
2023-03-02T15:22:34.506Z,20.97
2023-03-02T15:25:00.889Z,22.50
2023-03-02T15:27:27.350Z,26.13
2023-03-02T15:29:55.804Z,28.30
2023-03-02T15:32:23.241Z,23.07
2023-03-02T15:34:49.651Z,24.90
2023-03-02T15:37:16.075Z,24.10
2023-03-02T15:39:42.948Z,25.30
2023-03-02T15:42:09.358Z,25.00
2023-03-02T15:44:35.795Z,22.70
2023-03-02T15:47:02.418Z,25.07
2023-03-02T15:49:29.435Z,25.67
2023-03-02T15:51:59.963Z,31.27
2023-03-02T15:54:27.417Z,28.13
2023-03-02T15:56:54.017Z,27.80
2023-03-02T15:59:21.834Z,26.90
2023-03-02T16:01:48.712Z,27.80
2023-03-02T16:04:15.368Z,29.33
2023-03-02T16:06:41.789Z,27.57
2023-03-02T16:09:08.218Z,25.93
2023-03-02T16:11:34.655Z,29.83
2023-03-02T16:14:01.048Z,31.23
2023-03-02T16:16:27.721Z,32.13
2023-03-02T16:18:56.252Z,33.67
2023-03-02T16:21:23.891Z,33.53
2023-03-02T16:23:52.550Z,33.40
2023-03-02T16:26:20.468Z,30.53
2023-03-02T16:28:47.192Z,34.80
2023-03-02T16:31:17.323Z,31.70
2023-03-02T16:33:44.908Z,27.70
2023-03-02T16:36:12.241Z,33.97
2023-03-02T16:38:39.164Z,31.03
2023-03-02T16:41:13.161Z,33.37
2023-03-02T16:43:45.236Z,30.87
2023-03-02T16:46:11.686Z,31.80
2023-03-02T16:48:38.177Z,29.50
2023-03-02T16:51:04.914Z,33.67
2023-03-02T16:53:31.449Z,34.00
2023-03-02T16:55:57.954Z,34.23
2023-03-02T16:58:24.991Z,34.57
2023-03-02T17:00:51.826Z,33.00
2023-03-02T17:03:18.369Z,37.03
2023-03-02T17:05:45.025Z,41.57
2023-03-02T17:08:11.766Z,36.03
2023-03-02T17:10:38.229Z,31.10
2023-03-02T17:13:05.143Z,33.97
2023-03-02T17:15:31.580Z,37.43
2023-03-02T17:17:58.226Z,39.10
2023-03-02T17:20:24.859Z,63.00
2023-03-02T17:22:51.396Z,39.80
2023-03-02T17:25:18.200Z,43.70
2023-03-02T17:27:45.710Z,45.63
2023-03-02T17:30:13.406Z,44.53
2023-03-02T17:32:40.364Z,53.37
2023-03-02T17:35:08.033Z,65.20
2023-03-02T17:37:34.991Z,46.53
2023-03-02T17:40:01.462Z,57.80
2023-03-02T17:42:28.447Z,47.80
2023-03-02T17:44:54.893Z,63.90
2023-03-02T17:47:21.314Z,52.33
2023-03-02T17:49:47.872Z,62.63
2023-03-02T17:52:16.489Z,71.90
2023-03-02T17:54:44.223Z,72.23
2023-03-02T17:57:13.616Z,47.57
2023-03-02T17:59:40.082Z,62.63
2023-03-02T18:02:06.493Z,49.80
2023-03-02T18:04:33.517Z,46.97
2023-03-02T18:07:01.565Z,46.23
2023-03-02T18:09:28.232Z,50.43
2023-03-02T18:11:54.683Z,44.37
2023-03-02T18:14:21.443Z,45.70
2023-03-02T18:16:48.202Z,45.97
2023-03-02T18:19:15.042Z,50.47
2023-03-02T18:21:41.811Z,43.13
2023-03-02T18:24:09.216Z,42.53
2023-03-02T18:26:35.606Z,36.03
2023-03-02T18:29:02.293Z,35.37
2023-03-02T18:31:28.715Z,36.13
2023-03-02T18:33:55.129Z,39.87
2023-03-02T18:36:28.842Z,34.33
2023-03-02T18:38:57.282Z,40.17
2023-03-02T18:41:25.767Z,37.63
2023-03-02T18:43:54.337Z,39.90
2023-03-02T18:46:26.804Z,39.00
2023-03-02T18:48:55.312Z,38.07
2023-03-02T18:51:23.025Z,44.63
2023-03-02T18:53:51.106Z,43.57
2023-03-02T18:56:18.306Z,43.63
2023-03-02T18:58:45.307Z,44.57
2023-03-02T19:01:11.821Z,42.67
2023-03-02T19:03:38.919Z,44.60
2023-03-02T19:06:07.212Z,44.90
2023-03-02T19:08:35.474Z,40.33
2023-03-02T19:11:02.648Z,43.90
2023-03-02T19:13:29.057Z,39.97
2023-03-02T19:15:55.571Z,45.60
2023-03-02T19:18:24.094Z,45.87
2023-03-02T19:20:51.939Z,34.00
2023-03-02T19:23:18.498Z,38.00
2023-03-02T19:25:45.258Z,36.70
2023-03-02T19:28:12.985Z,35.03
2023-03-02T19:30:40.252Z,40.33
2023-03-02T19:33:09.242Z,34.63
2023-03-02T19:35:37.596Z,32.47
2023-03-02T19:38:04.764Z,29.37
2023-03-02T19:40:32.233Z,32.33
2023-03-02T19:42:58.928Z,30.67
2023-03-02T19:45:29.431Z,26.57
2023-03-02T19:48:00.012Z,29.03
2023-03-02T19:50:27.697Z,28.80
2023-03-02T19:52:55.100Z,30.87
2023-03-02T19:55:24.208Z,29.60
2023-03-02T19:57:56.118Z,33.07
2023-03-02T20:00:23.961Z,35.90
2023-03-02T20:02:50.370Z,33.47
2023-03-02T20:05:16.777Z,30.37
2023-03-02T20:07:43.412Z,27.23
2023-03-02T20:10:10.678Z,38.87
2023-03-02T20:12:37.201Z,30.67
2023-03-02T20:15:05.059Z,28.43
2023-03-02T20:17:31.534Z,30.87
2023-03-02T20:19:58.852Z,30.60
2023-03-02T20:22:25.978Z,29.27
2023-03-02T20:24:52.494Z,28.70
2023-03-02T20:27:18.949Z,28.50
2023-03-02T20:29:45.676Z,28.20
2023-03-02T20:32:13.393Z,24.20
2023-03-02T20:34:41.354Z,26.40
2023-03-02T20:37:08.441Z,29.60
2023-03-02T20:39:38.688Z,31.07
2023-03-02T20:42:05.930Z,24.70
2023-03-02T20:44:32.485Z,25.70
2023-03-02T20:47:04.518Z,27.33
2023-03-02T20:49:31.411Z,25.23
2023-03-02T20:51:59.258Z,28.20
2023-03-02T20:54:29.542Z,23.93
2023-03-02T20:56:56.598Z,25.57
2023-03-02T20:59:24.128Z,23.87
2023-03-02T21:01:50.927Z,22.47
2023-03-02T21:04:17.601Z,25.77
2023-03-02T21:06:44.614Z,24.43
2023-03-02T21:09:11.204Z,22.97
2023-03-02T21:11:38.141Z,26.80
2023-03-02T21:14:04.896Z,29.20
2023-03-02T21:16:36.298Z,28.33
2023-03-02T21:19:05.330Z,29.60
2023-03-02T21:21:41.028Z,28.07
2023-03-02T21:24:12.082Z,29.83
2023-03-02T21:26:38.953Z,28.33
2023-03-02T21:29:05.842Z,28.77
2023-03-02T21:31:32.776Z,30.27
2023-03-02T21:34:00.532Z,27.63
2023-03-02T21:36:27.481Z,28.13
2023-03-02T21:38:54.548Z,28.47
2023-03-02T21:41:21.477Z,31.57
2023-03-02T21:43:48.621Z,36.03
2023-03-02T21:46:18.280Z,30.30
2023-03-02T21:48:45.200Z,25.27
2023-03-02T21:51:12.915Z,29.57
2023-03-02T21:53:40.098Z,29.13
2023-03-02T21:56:07.316Z,28.80
2023-03-02T21:58:33.765Z,30.10
2023-03-02T22:01:00.546Z,31.67
2023-03-02T22:03:27.123Z,30.00
2023-03-02T22:05:53.558Z,32.30
2023-03-02T22:08:20.673Z,27.50
2023-03-02T22:10:51.107Z,26.43
2023-03-02T22:13:24.994Z,27.53
2023-03-02T22:16:16.846Z,24.07
2023-03-02T22:18:45.296Z,25.03
2023-03-02T22:21:30.884Z,24.70
2023-03-02T22:24:09.496Z,28.23
2023-03-02T22:26:42.170Z,28.77
2023-03-02T22:29:23.186Z,29.00
2023-03-02T22:31:51.605Z,28.37
2023-03-02T22:34:30.117Z,28.07
2023-03-02T22:36:59.800Z,25.17
2023-03-02T22:39:32.546Z,24.63
2023-03-02T22:42:06.412Z,24.37
2023-03-02T22:44:33.399Z,27.87
2023-03-02T22:47:00.610Z,26.73
2023-03-02T22:49:28.024Z,27.23
2023-03-02T22:51:55.742Z,30.00
2023-03-02T22:54:26.897Z,26.80
2023-03-02T22:56:53.431Z,26.87
2023-03-02T22:59:28.027Z,25.70
2023-03-02T23:01:58.752Z,24.20
2023-03-02T23:04:26.828Z,28.03
2023-03-02T23:06:55.043Z,26.97
2023-03-02T23:09:30.579Z,27.93
2023-03-02T23:12:00.001Z,28.47
2023-03-02T23:14:27.826Z,31.07
2023-03-02T23:16:59.875Z,27.37
2023-03-02T23:19:28.649Z,34.00
2023-03-02T23:21:55.745Z,33.13
2023-03-02T23:24:22.300Z,30.13
2023-03-02T23:26:50.519Z,30.90
2023-03-02T23:29:18.153Z,34.93
2023-03-02T23:31:45.631Z,31.07
2023-03-02T23:34:12.806Z,28.60
2023-03-02T23:36:39.688Z,26.73
2023-03-02T23:39:07.828Z,27.40
2023-03-02T23:41:35.699Z,26.73
2023-03-02T23:44:02.381Z,28.37
2023-03-02T23:46:29.311Z,28.30
2023-03-02T23:48:56.176Z,28.13
2023-03-02T23:51:25.479Z,30.73
2023-03-02T23:53:55.510Z,26.00
2023-03-02T23:56:22.036Z,31.07
2023-03-02T23:58:48.682Z,33.00
